Dickinson, AL (36436)

9:12 PM CDT on June 30, 2015 (GMT -0500)
KALFRISC2 | | Change Station
CLOSE
Current Station
Personal Weather Station
Location: Perdue Hill, AL
Elevation: 70 ft
Nearby Weather Stations

Elev 70 ft 31.58 °N, 87.49 °W | Updated 2 minutes ago

Mostly Cloudy
Mostly Cloudy
76.7 °F
Feels Like 78 °F
N
5.0
Wind Variable Wind from SSW
Gusts 5.0 mph

Today
High -- | Low -- °F
--% Chance of Precip.
Yesterday
High -- | Low -- °F
Precip. -- in
5:48 AM 8:00 PM
Waxing Gibbous, 99% visible
Pressure 30.04 in
Visibility 10.0 miles
Clouds Clear
Heat Index 78 °F
Dew Point 74 °F
Humidity 90%
Rainfall 0.07 in
Snow Depth Not available.
UV 0 out of 12
Pollen 2.70 out of 12
Air Quality Not available.
Flu Activity Sporadic
METAR KGZH 010153Z AUTO 00000KT 10SM CLR 23/22 A3005 RMK AO2 SLP172 T02330217 PNO

More Conditions Fewer Conditions

Pressure 30.04 in
Visibility 10.0 miles
Clouds Clear
Heat Index 78 °F
Dew Point 74 °F
Humidity 90%
Rainfall 0.07 in
Snow Depth Not available.
UV 0 out of 12
Pollen 2.70 out of 12
Air Quality Not available.
Flu Activity Sporadic
METAR KGZH 010153Z AUTO 00000KT 10SM CLR 23/22 A3005 RMK AO2 SLP172 T02330217 PNO

More Conditions Fewer Conditions

10-Day Weather Forecast

×

Almanac

Astronomy

Jun. 30, 2015 Rise Set
Actual Time
Civil Twilight
Nautical Twilight
Astronomical Twilight
Moon
Length of Visible Light
Length of Day
Tomorrow will be .
, % of the Moon is Illuminated

Today's Extremes

State Highs State Lows

Community

WunderPhotos

Upload Photos

1,834,095 photos uploaded!

WunderBlogs® & News

Nearby

Air Quality

  Air Quality AQ Index Pollutant
Not available.

Snow Depth

Station Depth Elevation

Earthquake Activity

City Distance Mag. Time & Date
Minimum magnitude displayed is 2.5.

Coastal Water Temperatures

Place Temperature

Stations

Nearby Weather Stations

Station Location Temp. Windchill Dew Point Humidity Wind Precip. Elev Updated Type